Time;durP1;ratioP1;P1;durP2;ratioP2;P2;SDS_P1;SDS_P2;PMS_P1;PMS_P2;Temp;Humidity;BMP_temperature;BMP_pressure;BME280_temperature;BME280_humidity;BME280_pressure;Samples;Min_cycle;Max_cycle;Signal;HPM_P1;HPM_P2
2021/10/29 00:01:53;;;;;;;14.40;13.00;;;;;;;8.61;82.81;100454.41;5076122;28;20193;-77
2021/10/29 00:04:19;;;;;;;14.30;13.00;;;;;;;8.54;83.12;100443.19;5075736;28;20213;-77
2021/10/29 00:06:46;;;;;;;16.97;14.07;;;;;;;8.58;83.22;100447.47;5057091;28;20237;-77
2021/10/29 00:09:12;;;;;;;14.47;13.07;;;;;;;8.62;82.52;100450.91;5064897;28;20197;-77
2021/10/29 00:11:39;;;;;;;14.57;13.20;;;;;;;8.64;83.12;100449.16;5072341;28;20234;-77
2021/10/29 00:14:07;;;;;;;15.83;14.33;;;;;;;8.66;83.25;100452.59;5059266;28;20224;-77
2021/10/29 00:16:33;;;;;;;14.73;13.20;;;;;;;8.63;82.97;100460.44;5056690;28;20672;-77
2021/10/29 00:18:59;;;;;;;15.37;13.60;;;;;;;8.51;83.16;100444.09;5075029;28;20193;-77
2021/10/29 00:21:26;;;;;;;15.63;13.97;;;;;;;8.54;83.54;100430.16;5061455;28;20801;-77
2021/10/29 00:23:52;;;;;;;15.63;14.23;;;;;;;8.59;83.69;100423.19;5066685;28;20715;-77
2021/10/29 00:26:19;;;;;;;17.63;15.57;;;;;;;8.53;84.41;100424.13;5070178;28;20726;-77
2021/10/29 00:28:45;;;;;;;17.10;14.33;;;;;;;8.52;84.80;100391.19;5070778;28;20193;-77
2021/10/29 00:31:13;;;;;;;16.40;13.87;;;;;;;8.61;84.94;100385.00;5076291;28;20200;-77
2021/10/29 00:33:40;;;;;;;16.60;14.27;;;;;;;8.58;84.70;100394.59;5060298;28;20283;-77
2021/10/29 00:36:07;;;;;;;14.13;12.83;;;;;;;8.59;84.88;100391.13;5066271;28;20539;-77
2021/10/29 00:38:35;;;;;;;16.70;13.20;;;;;;;8.61;85.26;100369.41;5075395;28;20702;-77
2021/10/29 00:41:01;;;;;;;14.77;13.20;;;;;;;8.62;85.57;100360.72;5066251;28;20196;-77
2021/10/29 00:43:27;;;;;;;17.40;13.17;;;;;;;8.66;86.25;100352.00;5060619;28;20229;-77
2021/10/29 00:45:54;;;;;;;14.57;13.07;;;;;;;8.62;85.38;100378.06;5058648;28;20283;-77
2021/10/29 00:48:22;;;;;;;17.30;13.40;;;;;;;8.73;87.17;100319.78;5063754;28;20208;-77
2021/10/29 00:50:48;;;;;;;14.93;13.43;;;;;;;8.77;86.10;100332.78;5056028;28;20212;-77
2021/10/29 00:53:15;;;;;;;17.10;14.33;;;;;;;8.58;84.49;100368.56;5072591;28;20228;-77
2021/10/29 00:55:42;;;;;;;16.10;14.33;;;;;;;8.58;85.00;100376.38;5063040;28;20668;-77
2021/10/29 00:58:08;;;;;;;16.17;13.37;;;;;;;8.55;85.48;100365.13;5056219;28;20363;-78
2021/10/29 01:00:35;;;;;;;15.40;13.77;;;;;;;8.55;85.72;100344.31;5066105;28;20894;-77
2021/10/29 01:03:01;;;;;;;15.07;13.47;;;;;;;8.51;85.32;100370.38;5068912;28;20270;-77
2021/10/29 01:05:29;;;;;;;15.30;13.70;;;;;;;8.54;85.20;100350.41;5063265;28;20224;-77
2021/10/29 01:07:58;;;;;;;16.40;12.53;;;;;;;8.57;84.24;100378.13;5068067;28;20189;-77
2021/10/29 01:10:29;;;;;;;13.47;12.17;;;;;;;8.72;84.74;100357.13;5057845;28;20692;-77
2021/10/29 01:12:55;;;;;;;12.97;11.67;;;;;;;8.72;84.19;100372.72;5062788;28;20731;-77
2021/10/29 01:15:21;;;;;;;13.13;11.73;;;;;;;8.73;82.94;100415.22;5060720;28;20205;-77
2021/10/29 01:17:48;;;;;;;14.13;12.83;;;;;;;8.76;83.22;100415.19;5058465;28;20208;-77
2021/10/29 01:20:18;;;;;;;13.53;11.93;;;;;;;8.69;82.65;100424.81;5060636;28;20243;-77
2021/10/29 01:22:45;;;;;;;12.73;11.60;;;;;;;8.78;83.35;100420.38;5063854;28;20282;-77
2021/10/29 01:25:12;;;;;;;13.23;11.30;;;;;;;8.83;82.53;100435.06;5063717;28;20229;-77
2021/10/29 01:27:39;;;;;;;12.73;11.33;;;;;;;8.86;83.28;100419.41;5063968;28;20200;-77
2021/10/29 01:30:06;;;;;;;12.27;10.97;;;;;;;8.92;83.28;100411.53;5066784;28;20201;-77
2021/10/29 01:32:33;;;;;;;12.33;10.47;;;;;;;9.02;84.44;100364.53;5059313;28;20618;-77
2021/10/29 01:34:59;;;;;;;12.30;11.17;;;;;;;9.04;82.78;100400.09;5065572;28;20258;-76
2021/10/29 01:37:28;;;;;;;11.93;10.73;;;;;;;9.01;84.61;100409.69;5062282;28;20304;-77
2021/10/29 01:39:54;;;;;;;12.77;11.47;;;;;;;9.12;85.17;100340.09;5055403;28;20259;-77
2021/10/29 01:42:21;;;;;;;12.07;10.97;;;;;;;9.12;83.70;100384.38;5071053;28;20205;-77
2021/10/29 01:44:48;;;;;;;12.33;11.23;;;;;;;9.08;82.57;100425.22;5070127;28;20235;-77
2021/10/29 01:47:15;;;;;;;12.80;11.50;;;;;;;9.05;82.88;100422.63;5055197;28;20217;-78
2021/10/29 01:49:42;;;;;;;12.90;11.33;;;;;;;9.08;83.10;100406.97;5069482;28;20216;-77
2021/10/29 01:52:09;;;;;;;13.40;12.07;;;;;;;9.02;82.72;100414.88;5057060;28;20575;-77
2021/10/29 01:54:38;;;;;;;12.37;10.87;;;;;;;8.99;81.81;100442.69;5056086;28;20263;-77
2021/10/29 01:57:05;;;;;;;13.33;11.57;;;;;;;8.99;81.42;100466.13;5070473;28;20193;-77
2021/10/29 01:59:32;;;;;;;12.17;10.97;;;;;;;8.98;82.78;100420.13;5058494;28;20212;-77
2021/10/29 02:01:58;;;;;;;12.40;11.20;;;;;;;8.97;81.42;100455.72;5066474;28;20261;-77
2021/10/29 02:04:25;;;;;;;13.70;12.30;;;;;;;8.95;81.66;100447.91;5054974;28;20903;-77
2021/10/29 02:06:51;;;;;;;13.20;11.90;;;;;;;8.85;81.14;100463.69;5069673;28;20282;-77
2021/10/29 02:09:18;;;;;;;13.13;11.83;;;;;;;8.89;82.22;100437.56;5071154;28;20201;-77
2021/10/29 02:11:46;;;;;;;13.33;12.10;;;;;;;8.88;81.93;100440.19;5062160;28;20205;-78
2021/10/29 02:14:12;;;;;;;13.37;12.17;;;;;;;8.85;81.82;100430.69;5059957;28;20776;-78
2021/10/29 02:16:40;;;;;;;13.83;12.63;;;;;;;8.78;82.44;100441.19;5058964;28;20199;-75
2021/10/29 02:19:06;;;;;;;13.97;12.47;;;;;;;8.72;82.52;100435.19;5062896;28;20203;-75
2021/10/29 02:21:33;;;;;;;13.40;12.00;;;;;;;8.64;82.90;100429.22;5060477;28;20200;-75
2021/10/29 02:24:00;;;;;;;13.93;12.57;;;;;;;8.62;83.04;100411.88;5059017;28;20365;-74
2021/10/29 02:26:28;;;;;;;13.47;12.07;;;;;;;8.55;84.07;100383.34;5069098;28;20228;-75
2021/10/29 02:28:56;;;;;;;13.53;12.20;;;;;;;8.48;83.47;100383.41;5059785;28;20198;-75
2021/10/29 02:31:24;;;;;;;13.67;12.37;;;;;;;8.49;83.75;100369.53;5052771;28;20252;-75
2021/10/29 02:33:51;;;;;;;13.90;12.57;;;;;;;8.47;83.71;100356.56;5058126;28;20295;-75
2021/10/29 02:36:18;;;;;;;14.43;13.13;;;;;;;8.49;83.54;100365.19;5060197;28;20200;-75
2021/10/29 02:38:45;;;;;;;14.37;12.67;;;;;;;8.47;83.82;100376.50;5059615;28;20224;-75
2021/10/29 02:41:12;;;;;;;14.80;13.23;;;;;;;8.38;84.17;100367.00;5059182;28;20250;-76
2021/10/29 02:43:39;;;;;;;14.67;13.27;;;;;;;8.42;84.11;100373.09;5062908;28;20282;-76
2021/10/29 02:46:07;;;;;;;13.87;12.47;;;;;;;8.47;84.45;100356.56;5056053;28;20224;-75
2021/10/29 02:48:33;;;;;;;13.43;11.87;;;;;;;8.43;84.19;100344.47;5051302;28;20671;-76
2021/10/29 02:51:00;;;;;;;13.53;12.13;;;;;;;8.49;83.18;100377.34;5064641;28;20226;-76
2021/10/29 02:53:30;;;;;;;13.13;11.80;;;;;;;8.52;84.58;100353.88;5054629;28;20237;-75
2021/10/29 02:55:56;;;;;;;15.03;12.20;;;;;;;8.49;84.01;100367.78;5067269;28;20575;-76
2021/10/29 02:58:22;;;;;;;14.33;12.60;;;;;;;8.50;84.10;100355.63;5066438;28;20246;-76
2021/10/29 03:00:49;;;;;;;14.37;12.77;;;;;;;8.60;84.94;100354.66;5052035;28;20204;-76
2021/10/29 03:03:17;;;;;;;14.93;12.27;;;;;;;8.63;84.23;100354.63;5051837;28;20283;-76
2021/10/29 03:05:43;;;;;;;14.63;12.03;;;;;;;8.68;83.57;100367.56;5068919;28;20204;-76
2021/10/29 03:08:09;;;;;;;13.43;12.13;;;;;;;8.63;84.42;100353.78;5070367;28;20201;-76
2021/10/29 03:10:37;;;;;;;13.50;11.00;;;;;;;8.61;83.92;100361.59;5054021;28;20608;-76
2021/10/29 03:13:04;;;;;;;12.57;11.27;;;;;;;8.55;83.99;100359.06;5052420;28;20227;-75
2021/10/29 03:15:30;;;;;;;13.13;11.87;;;;;;;8.59;85.90;100328.69;5051696;28;20255;-76
2021/10/29 03:17:56;;;;;;;11.77;10.57;;;;;;;8.58;86.49;100287.91;5062053;28;20263;-76
2021/10/29 03:20:24;;;;;;;12.20;10.93;;;;;;;8.52;85.03;100323.56;5064011;28;20205;-76
2021/10/29 03:22:51;;;;;;;15.03;11.97;;;;;;;8.45;83.84;100353.09;5060259;28;20303;-75
2021/10/29 03:25:18;;;;;;;12.67;11.43;;;;;;;8.46;84.28;100346.16;5057753;28;20201;-76
2021/10/29 03:27:44;;;;;;;13.97;11.20;;;;;;;8.51;85.94;100293.19;5051200;28;20224;-76
2021/10/29 03:30:12;;;;;;;12.33;11.20;;;;;;;8.56;86.29;100293.13;5043468;28;20288;-75
2021/10/29 03:32:38;;;;;;;12.97;11.87;;;;;;;8.51;85.06;100319.22;5050899;28;20201;-76
2021/10/29 03:35:06;;;;;;;13.03;11.83;;;;;;;8.52;85.85;100307.94;5061155;28;20201;-76
2021/10/29 03:40:20;;;;;;;13.57;12.07;;;;;;;8.49;85.28;100327.94;5056660;28;20215;-76
2021/10/29 03:42:53;;;;;;;13.97;12.37;;;;;;;8.48;84.84;100324.47;5067261;28;20232;-76
2021/10/29 03:45:20;;;;;;;15.50;12.80;;;;;;;8.47;84.13;100335.75;5059658;28;20197;-76
2021/10/29 03:47:51;;;;;;;14.77;13.27;;;;;;;8.49;85.03;100335.72;5058931;28;20616;-76
2021/10/29 03:50:21;;;;;;;14.67;13.30;;;;;;;8.53;85.15;100317.44;5065599;28;20200;-75
2021/10/29 03:52:53;;;;;;;15.73;14.23;;;;;;;8.47;85.39;100320.13;5074711;28;20311;-76
2021/10/29 03:55:21;;;;;;;16.23;14.27;;;;;;;8.49;85.69;100305.38;5058508;28;20203;-76
2021/10/29 03:57:47;;;;;;;16.33;14.23;;;;;;;8.54;85.74;100310.50;5066866;28;20212;-76
2021/10/29 04:00:14;;;;;;;15.90;14.37;;;;;;;8.53;85.05;100322.66;5064839;28;20208;-75
2021/10/29 04:02:40;;;;;;;16.20;14.47;;;;;;;8.48;84.35;100339.19;5081641;22;20775;-77
2021/10/29 04:05:07;;;;;;;15.93;14.17;;;;;;;8.58;86.48;100290.50;5008838;28;20261;-77
2021/10/29 04:07:34;;;;;;;15.37;13.87;;;;;;;8.61;86.85;100270.53;4997267;28;20223;-77
2021/10/29 04:10:02;;;;;;;14.43;12.93;;;;;;;8.61;86.65;100264.47;5012934;28;20230;-76
2021/10/29 04:12:28;;;;;;;15.20;13.70;;;;;;;8.60;87.35;100266.19;5004482;28;20692;-77
2021/10/29 04:14:56;;;;;;;13.67;12.40;;;;;;;8.48;84.92;100307.97;5012059;28;20667;-77
2021/10/29 04:17:23;;;;;;;14.57;13.00;;;;;;;8.41;84.54;100346.22;5015552;28;20199;-77
2021/10/29 04:19:49;;;;;;;14.70;13.20;;;;;;;8.38;84.41;100333.19;5002543;28;20219;-77
2021/10/29 04:22:16;;;;;;;15.37;13.17;;;;;;;8.44;86.79;100273.34;5005957;28;20211;-77
2021/10/29 04:24:42;;;;;;;17.13;15.33;;;;;;;8.41;86.13;100278.59;5008353;28;20203;-77
2021/10/29 04:27:19;;;;;;;15.87;14.23;;;;;;;8.31;85.60;100288.22;5008195;28;20319;-77
2021/10/29 04:29:47;;;;;;;18.67;16.93;;;;;;;8.34;86.27;100288.19;5002395;28;20228;-77
2021/10/29 04:32:14;;;;;;;19.90;17.77;;;;;;;8.29;84.57;100318.59;4999687;28;20204;-77
2021/10/29 04:34:40;;;;;;;20.47;17.37;;;;;;;8.29;85.21;100299.53;5000053;28;20195;-77
2021/10/29 04:37:07;;;;;;;19.40;17.50;;;;;;;8.32;86.88;100266.53;5005602;28;20545;-77
2021/10/29 04:39:33;;;;;;;20.93;16.40;;;;;;;8.32;86.55;100257.88;5011474;28;20792;-77
2021/10/29 04:42:00;;;;;;;21.27;19.03;;;;;;;8.31;87.04;100233.59;5010575;28;20195;-77
2021/10/29 04:44:28;;;;;;;21.00;18.30;;;;;;;8.30;85.89;100244.88;4999771;28;20739;-77
2021/10/29 04:46:54;;;;;;;18.23;15.67;;;;;;;8.37;87.36;100208.41;5004244;28;20227;-77
2021/10/29 04:49:21;;;;;;;22.13;19.73;;;;;;;8.39;87.71;100232.66;5004478;28;20285;-77
2021/10/29 04:51:47;;;;;;;22.70;20.20;;;;;;;8.35;87.04;100227.47;5000032;28;20265;-77
2021/10/29 04:54:15;;;;;;;32.13;25.03;;;;;;;8.29;86.18;100234.50;5015943;28;20643;-77
2021/10/29 04:56:43;;;;;;;25.00;20.17;;;;;;;8.22;86.48;100261.47;4997973;28;20204;-77
2021/10/29 04:59:10;;;;;;;35.20;26.27;;;;;;;8.22;85.96;100253.66;4996476;28;20207;-77
2021/10/29 05:01:38;;;;;;;22.80;19.57;;;;;;;8.26;88.68;100183.38;5005115;28;20206;-77
2021/10/29 05:04:05;;;;;;;21.90;19.07;;;;;;;8.28;88.91;100166.03;4996545;28;20270;-77
2021/10/29 05:06:31;;;;;;;34.77;25.57;;;;;;;8.23;87.72;100206.00;4996470;28;20204;-77
2021/10/29 05:08:58;;;;;;;20.23;17.97;;;;;;;8.15;87.96;100198.28;4996403;28;20771;-77
2021/10/29 05:11:24;;;;;;;19.67;17.73;;;;;;;8.19;88.93;100168.78;4996821;28;20751;-76
2021/10/29 05:13:51;;;;;;;19.07;15.70;;;;;;;8.11;88.56;100176.66;4998541;28;20218;-77
2021/10/29 05:16:17;;;;;;;19.30;15.43;;;;;;;8.16;88.60;100166.19;5015583;28;20249;-77
2021/10/29 05:18:45;;;;;;;18.80;16.77;;;;;;;8.19;88.03;100160.97;5005002;28;20199;-77
2021/10/29 05:21:11;;;;;;;26.00;22.27;;;;;;;8.22;88.90;100168.72;5007883;28;20223;-77
2021/10/29 05:23:38;;;;;;;26.43;21.67;;;;;;;8.13;87.48;100189.66;5007130;28;20575;-77
2021/10/29 05:26:04;;;;;;;28.20;25.17;;;;;;;8.18;86.17;100231.19;4987899;28;20256;-77
2021/10/29 05:28:31;;;;;;;21.03;18.83;;;;;;;8.12;86.29;100243.34;5003557;28;20224;-77
2021/10/29 05:30:57;;;;;;;20.43;18.03;;;;;;;8.16;86.42;100242.44;4997280;28;20226;-77
2021/10/29 05:33:24;;;;;;;19.73;16.63;;;;;;;8.22;87.67;100218.09;5002265;28;20363;-76
2021/10/29 05:35:52;;;;;;;17.83;14.73;;;;;;;8.24;87.79;100182.53;4995873;28;20207;-76
2021/10/29 05:38:19;;;;;;;20.70;16.83;;;;;;;8.24;87.12;100197.28;5010503;28;20281;-77
2021/10/29 05:40:45;;;;;;;26.83;24.00;;;;;;;8.31;87.06;100199.78;5006988;28;20233;-77
2021/10/29 05:43:11;;;;;;;17.03;15.43;;;;;;;8.29;86.79;100208.50;4998197;28;20199;-77
2021/10/29 05:45:38;;;;;;;22.43;18.07;;;;;;;8.29;86.70;100211.97;5005566;28;20680;-77
2021/10/29 05:48:07;;;;;;;20.03;17.33;;;;;;;8.37;87.69;100201.47;5003026;28;20227;-77
2021/10/29 05:50:35;;;;;;;19.33;17.47;;;;;;;8.41;86.80;100204.88;5003057;28;20231;-77
2021/10/29 05:53:06;;;;;;;23.20;18.23;;;;;;;8.45;86.27;100230.00;5005673;28;20718;-77
2021/10/29 05:55:32;;;;;;;21.77;17.27;;;;;;;8.48;86.86;100214.34;5002477;28;20195;-77
2021/10/29 05:57:59;;;;;;;19.63;16.17;;;;;;;8.46;86.74;100224.78;5012251;28;20195;-76
2021/10/29 06:00:28;;;;;;;19.63;16.43;;;;;;;8.48;86.17;100242.94;5011454;28;20231;-77
2021/10/29 06:02:56;;;;;;;18.20;16.27;;;;;;;8.52;87.25;100213.41;5011246;28;20588;-77
2021/10/29 06:05:22;;;;;;;16.50;14.80;;;;;;;8.54;86.34;100212.53;5012579;28;20636;-77
2021/10/29 06:07:49;;;;;;;18.30;15.00;;;;;;;8.55;86.32;100231.59;5008242;28;20230;-76
2021/10/29 06:10:17;;;;;;;20.43;18.23;;;;;;;8.65;86.33;100224.50;5010681;28;20227;-77
2021/10/29 06:12:44;;;;;;;19.93;16.57;;;;;;;8.55;85.73;100253.25;5002175;28;20211;-77
2021/10/29 06:15:12;;;;;;;18.53;15.80;;;;;;;8.60;85.21;100267.94;4999777;28;20227;-78
2021/10/29 06:17:39;;;;;;;17.90;16.10;;;;;;;8.59;86.30;100255.81;5003789;28;20203;-78
2021/10/29 06:20:07;;;;;;;20.40;16.33;;;;;;;8.65;86.65;100232.31;5003422;28;20906;-77
2021/10/29 06:22:36;;;;;;;17.27;15.53;;;;;;;8.62;85.83;100251.44;5008142;28;20210;-78
2021/10/29 06:25:09;;;;;;;17.00;15.30;;;;;;;8.69;85.92;100232.25;5007246;28;20555;-78
2021/10/29 06:30:21;;;;;;;17.50;15.73;;;;;;;8.62;84.97;100281.78;5000958;28;20602;-77
2021/10/29 06:32:47;;;;;;;19.33;16.33;;;;;;;8.53;84.55;100291.44;5004495;28;20312;-77
2021/10/29 06:35:14;;;;;;;16.53;14.77;;;;;;;8.58;85.06;100262.75;5007655;28;20210;-78
2021/10/29 06:37:42;;;;;;;16.97;15.23;;;;;;;8.51;84.78;100275.00;5000252;28;20491;-77
2021/10/29 06:40:12;;;;;;;16.20;14.53;;;;;;;8.55;84.83;100281.88;4999075;28;20248;-77
2021/10/29 06:42:41;;;;;;;17.60;15.50;;;;;;;8.60;84.09;100284.41;4999170;28;20207;-77
2021/10/29 06:45:20;;;;;;;15.77;14.10;;;;;;;8.59;84.60;100287.03;5002646;28;20210;-78
2021/10/29 06:47:51;;;;;;;15.13;13.73;;;;;;;8.55;84.71;100284.47;5003595;28;20269;-77
2021/10/29 07:01:20;;;;;;;15.23;12.27;;;;;;;8.67;84.28;100309.47;5004554;28;20282;-78
2021/10/29 07:40:02;;;;;;;12.43;11.33;;;;;;;9.17;82.93;100317.44;5007773;28;20226;-79
2021/10/29 07:42:33;;;;;;;10.90;9.90;;;;;;;9.24;82.15;100337.31;5004618;28;20227;-78
2021/10/29 07:45:00;;;;;;;13.10;11.80;;;;;;;9.29;82.89;100332.88;4995584;28;20203;-81
2021/10/29 07:47:28;;;;;;;12.80;11.27;;;;;;;9.35;82.52;100321.50;4998378;28;20226;-80
2021/10/29 07:49:55;;;;;;;14.73;11.13;;;;;;;9.41;83.03;100321.41;4995251;28;20239;-79
2021/10/29 07:52:21;;;;;;;11.13;10.10;;;;;;;9.43;82.67;100339.63;4998942;28;20207;-79
2021/10/29 07:54:48;;;;;;;13.00;11.70;;;;;;;9.46;82.99;100335.22;4998488;28;20206;-82
2021/10/29 07:57:18;;;;;;;13.70;12.40;;;;;;;9.54;82.44;100346.38;4981522;28;20662;-81
2021/10/29 07:59:45;;;;;;;13.33;12.13;;;;;;;9.56;82.48;100348.97;4980784;28;20227;-81
2021/10/29 08:02:12;;;;;;;12.83;11.63;;;;;;;9.63;82.35;100358.41;4984432;28;20207;-80
2021/10/29 08:04:39;;;;;;;13.83;11.10;;;;;;;9.70;81.11;100387.84;4989841;28;20203;-81
2021/10/29 08:07:06;;;;;;;11.70;10.63;;;;;;;9.74;81.69;100377.31;4995690;28;20687;-80
2021/10/29 08:09:32;;;;;;;10.80;9.80;;;;;;;9.78;80.73;100414.63;4997362;28;20215;-80
2021/10/29 08:11:59;;;;;;;16.27;14.83;;;;;;;9.85;80.57;100424.09;4997838;28;20620;-83
2021/10/29 08:14:26;;;;;;;12.37;11.30;;;;;;;9.93;79.98;100429.19;4995125;28;20295;-82
2021/10/29 08:16:53;;;;;;;11.33;10.27;;;;;;;10.05;80.12;100435.91;4995793;28;20200;-83
2021/10/29 08:19:24;;;;;;;12.90;11.70;;;;;;;10.02;80.33;100429.00;4995536;28;20207;-82
2021/10/29 08:21:52;;;;;;;12.00;11.00;;;;;;;10.10;80.00;100450.59;4995985;28;20270;-80
2021/10/29 08:24:19;;;;;;;12.27;11.17;;;;;;;10.18;79.45;100449.63;4997179;28;20212;-80
2021/10/29 08:26:45;;;;;;;10.63;9.70;;;;;;;10.22;80.60;100414.78;4996003;28;20203;-80
2021/10/29 08:29:12;;;;;;;11.70;10.70;;;;;;;10.26;79.86;100422.50;4996692;28;20235;-80
2021/10/29 08:31:38;;;;;;;11.43;10.43;;;;;;;10.31;80.31;100420.72;4998275;28;20231;-82
2021/10/29 08:34:06;;;;;;;10.77;9.80;;;;;;;10.41;79.44;100439.69;5001680;28;20203;-81
2021/10/29 08:36:36;;;;;;;10.63;9.50;;;;;;;10.44;78.78;100455.25;5001445;28;20243;-81
2021/10/29 08:39:06;;;;;;;12.33;11.30;;;;;;;10.50;79.35;100460.41;4998665;28;20209;-79
2021/10/29 08:41:32;;;;;;;10.30;9.37;;;;;;;10.56;79.31;100435.06;5000468;28;20208;-80
2021/10/29 08:44:00;;;;;;;9.67;8.77;;;;;;;10.62;78.27;100446.22;5002078;28;20195;-79
2021/10/29 08:46:28;;;;;;;8.83;8.10;;;;;;;10.67;78.61;100462.69;5002248;28;20212;-80
2021/10/29 08:48:55;;;;;;;8.53;7.73;;;;;;;10.82;76.64;100487.66;4997089;28;20592;-79
2021/10/29 08:51:21;;;;;;;8.97;7.90;;;;;;;10.90;76.91;100526.66;4999501;28;20625;-78
2021/10/29 08:53:48;;;;;;;9.43;8.43;;;;;;;11.03;76.55;100545.56;4997257;28;20207;-78
2021/10/29 08:56:16;;;;;;;7.63;6.93;;;;;;;11.10;76.23;100548.03;4997809;28;20196;-79
2021/10/29 08:59:10;;;;;;;7.53;6.93;;;;;;;11.12;76.75;100533.19;4996830;28;20203;-80
2021/10/29 09:02:04;;;;;;;7.60;6.70;;;;;;;11.17;76.65;100524.41;4998321;28;20207;-78
2021/10/29 09:04:38;;;;;;;7.80;7.10;;;;;;;11.18;76.87;100513.94;4982186;28;20210;-77
2021/10/29 09:07:19;;;;;;;7.00;6.40;;;;;;;11.22;77.00;100512.09;4997628;28;20241;-78
2021/10/29 09:10:12;;;;;;;6.63;6.03;;;;;;;11.26;76.62;100526.84;4996193;28;20242;-78
2021/10/29 09:32:20;;;;;;;6.53;5.93;;;;;;;11.77;73.54;100641.66;5009680;28;20220;-76
2021/10/29 09:34:55;;;;;;;6.27;5.67;;;;;;;11.85;72.42;100678.13;4993145;28;20216;-76
2021/10/29 09:37:22;;;;;;;5.17;4.77;;;;;;;11.88;72.67;100665.00;5013469;28;20294;-76
2021/10/29 09:39:53;;;;;;;5.53;5.00;;;;;;;11.98;71.58;100710.19;5013760;28;20223;-78
2021/10/29 09:42:22;;;;;;;5.33;4.93;;;;;;;12.04;69.97;100755.38;5007555;28;20368;-78
2021/10/29 09:44:52;;;;;;;5.47;5.03;;;;;;;12.15;69.38;100772.63;4997767;28;20200;-77
2021/10/29 09:47:22;;;;;;;5.63;5.23;;;;;;;12.15;70.38;100757.81;5013816;28;20210;-76
2021/10/29 09:49:55;;;;;;;6.73;6.13;;;;;;;12.15;70.60;100743.84;5013256;28;20234;-77
2021/10/29 09:55:18;;;;;;;6.73;5.50;;;;;;;12.14;69.12;100773.53;4998944;28;20203;-79
2021/10/29 09:57:46;;;;;;;5.90;5.30;;;;;;;12.13;70.51;100730.81;5016699;28;20212;-78
2021/10/29 10:00:15;;;;;;;5.83;5.40;;;;;;;12.08;70.19;100740.50;5015224;28;20258;-78
2021/10/29 10:02:44;;;;;;;5.90;5.37;;;;;;;12.06;70.44;100731.81;5008869;28;20266;-78
2021/10/29 10:05:11;;;;;;;6.13;5.60;;;;;;;12.05;69.61;100751.88;4991762;28;20272;-78
2021/10/29 10:07:41;;;;;;;5.87;5.37;;;;;;;12.10;69.36;100738.69;4997305;28;20214;-77
2021/10/29 10:10:10;;;;;;;6.20;5.70;;;;;;;12.12;70.36;100739.53;4996278;28;20297;-77
2021/10/29 10:12:40;;;;;;;5.60;5.10;;;;;;;12.15;69.93;100739.47;4993813;28;20212;-77
2021/10/29 10:15:09;;;;;;;6.17;5.63;;;;;;;12.19;69.79;100745.50;5000754;28;20213;-77
2021/10/29 10:17:38;;;;;;;6.80;6.10;;;;;;;12.23;69.63;100757.63;5000643;28;20833;-78
2021/10/29 10:20:06;;;;;;;6.17;5.60;;;;;;;12.28;69.52;100756.63;5014508;28;20230;-77
2021/10/29 10:22:36;;;;;;;5.53;5.03;;;;;;;12.36;69.43;100764.31;4995517;28;20200;-77
2021/10/29 10:25:10;;;;;;;5.87;5.37;;;;;;;12.42;68.69;100774.66;4994018;28;20764;-76
2021/10/29 10:30:52;;;;;;;5.83;5.33;;;;;;;12.49;69.02;100763.19;4963708;28;20220;-75
2021/10/29 10:42:34;;;;;;;4.70;4.30;;;;;;;12.62;68.55;100762.91;4992353;28;20211;-75
2021/10/29 10:45:12;;;;;;;5.27;4.87;;;;;;;12.68;67.89;100791.56;4991912;28;20291;-75
2021/10/29 10:47:41;;;;;;;4.67;4.27;;;;;;;12.73;67.17;100810.69;4991085;28;20203;-75
2021/10/29 10:50:16;;;;;;;4.43;4.03;;;;;;;12.84;66.42;100820.91;4991395;28;20224;-75
2021/10/29 10:53:24;;;;;;;4.33;3.93;;;;;;;12.89;66.73;100824.31;4990574;28;20207;-75
2021/10/29 10:56:06;;;;;;;4.30;3.90;;;;;;;12.98;67.15;100810.13;4991184;28;20204;-75
2021/10/29 11:04:24;;;;;;;5.03;3.80;;;;;;;13.18;67.14;100804.41;4989468;28;20208;-77
2021/10/29 11:07:09;;;;;;;4.63;4.23;;;;;;;13.20;67.20;100782.53;4994227;28;20234;-78
2021/10/29 11:09:58;;;;;;;4.80;4.40;;;;;;;13.31;66.37;100834.72;4992258;28;20219;-77
2021/10/29 11:12:35;;;;;;;4.20;3.87;;;;;;;13.37;65.96;100850.31;4993403;28;20204;-77
2021/10/29 11:15:07;;;;;;;4.63;4.23;;;;;;;13.42;65.52;100868.53;4991916;28;20212;-77
2021/10/29 11:17:42;;;;;;;6.43;4.40;;;;;;;13.45;65.92;100855.38;4994004;28;20201;-78
2021/10/29 11:20:09;;;;;;;5.07;4.57;;;;;;;13.53;65.56;100845.53;4993446;28;20274;-77
2021/10/29 11:22:45;;;;;;;6.17;5.57;;;;;;;13.53;64.64;100873.53;4993533;28;20212;-77
2021/10/29 11:25:14;;;;;;;4.53;4.10;;;;;;;13.60;65.30;100855.00;4992989;28;20651;-76
2021/10/29 11:27:42;;;;;;;4.50;4.10;;;;;;;13.65;65.44;100853.09;4992020;28;20579;-78
2021/10/29 11:30:09;;;;;;;4.30;4.00;;;;;;;13.76;65.30;100859.88;4992471;28;20241;-78
2021/10/29 11:32:37;;;;;;;6.70;4.50;;;;;;;13.87;65.44;100850.81;4991281;28;20213;-79
2021/10/29 11:35:06;;;;;;;5.00;4.50;;;;;;;13.92;65.16;100848.06;4994301;28;20208;-78
2021/10/29 11:37:35;;;;;;;5.90;4.47;;;;;;;13.99;63.98;100857.47;4992541;28;20291;-77
2021/10/29 11:40:05;;;;;;;4.67;4.27;;;;;;;14.05;63.60;100885.34;4991260;28;20699;-76
2021/10/29 11:42:32;;;;;;;4.33;3.93;;;;;;;14.10;67.34;100805.56;4992650;28;20232;-77
2021/10/29 11:45:03;;;;;;;4.40;3.97;;;;;;;14.20;68.02;100750.19;4992663;28;20205;-77
2021/10/29 11:47:30;;;;;;;4.53;4.13;;;;;;;14.16;65.15;100833.41;4991544;28;20227;-75
2021/10/29 11:50:06;;;;;;;4.87;4.47;;;;;;;14.19;65.29;100835.09;4990580;28;20315;-76
2021/10/29 11:52:33;;;;;;;4.70;4.20;;;;;;;14.25;65.80;100827.94;4991102;28;20229;-76
2021/10/29 11:55:01;;;;;;;5.47;4.10;;;;;;;14.40;66.24;100808.22;4991476;28;20198;-75
2021/10/29 11:57:41;;;;;;;4.67;4.30;;;;;;;14.55;64.65;100848.97;4993638;28;20214;-75
2021/10/29 12:00:30;;;;;;;5.03;4.50;;;;;;;14.67;64.39;100879.31;4993901;28;20789;-75
2021/10/29 12:05:53;;;;;;;4.40;4.10;;;;;;;14.79;61.92;100930.66;5009768;28;20213;-76
2021/10/29 12:08:21;;;;;;;6.07;5.40;;;;;;;15.11;62.08;100937.59;5014601;28;20288;-75
2021/10/29 12:10:50;;;;;;;5.00;4.50;;;;;;;15.73;59.53;101033.13;4315661;28;10000721;-76
2021/10/29 12:13:18;;;;;;;3.93;3.57;;;;;;;16.42;58.46;101059.88;4992407;28;20234;-76
2021/10/29 12:15:45;;;;;;;4.03;3.73;;;;;;;16.91;57.05;101105.69;4992026;28;20218;-76
2021/10/29 12:18:14;;;;;;;7.30;4.37;;;;;;;17.06;57.23;101130.66;4992264;28;20225;-75
2021/10/29 12:20:44;;;;;;;4.57;4.20;;;;;;;16.74;55.99;101184.47;4991604;28;20219;-76
2021/10/29 12:23:19;;;;;;;6.87;4.40;;;;;;;16.45;57.50;101157.25;5006613;28;20230;-76
2021/10/29 12:25:55;;;;;;;5.23;4.63;;;;;;;16.26;58.15;101102.53;5010795;28;20664;-76
2021/10/29 12:28:26;;;;;;;4.90;4.50;;;;;;;15.98;57.83;101093.78;5011384;28;20568;-77
2021/10/29 12:30:56;;;;;;;5.07;4.57;;;;;;;15.82;59.79;101015.28;5011304;28;20808;-76
2021/10/29 12:36:51;;;;;;;5.77;4.10;;;;;;;15.41;60.92;100969.16;4992105;28;20203;-75
2021/10/29 12:53:21;;;;;;;6.60;5.13;;;;;;;14.69;62.61;100848.59;4994308;28;20260;-75
2021/10/29 13:01:35;;;;;;;5.63;5.10;;;;;;;14.39;64.10;100797.75;4976010;28;20213;-74
2021/10/29 13:04:04;;;;;;;7.53;5.23;;;;;;;14.44;64.61;100785.38;4994999;28;20239;-74
2021/10/29 13:06:35;;;;;;;5.53;4.77;;;;;;;14.43;64.74;100766.13;5011858;28;20213;-74
2021/10/29 13:09:12;;;;;;;5.80;5.30;;;;;;;14.34;64.17;100784.78;5010404;28;20236;-74
2021/10/29 13:11:44;;;;;;;6.10;5.13;;;;;;;14.44;64.95;100759.09;4997906;28;20678;-74
2021/10/29 13:14:12;;;;;;;4.93;4.37;;;;;;;14.50;64.82;100744.00;4991825;28;20208;-74
2021/10/29 13:16:40;;;;;;;4.77;4.33;;;;;;;14.49;64.81;100750.19;4992215;28;20213;-74
2021/10/29 13:35:40;;;;;;;4.93;4.53;;;;;;;14.53;62.61;100787.72;4994666;28;20362;-74
2021/10/29 13:38:33;;;;;;;4.03;3.63;;;;;;;14.44;62.93;100798.50;4998189;28;20209;-73
2021/10/29 13:52:06;;;;;;;5.20;3.80;;;;;;;14.33;61.81;100821.56;5002772;28;20214;-75
2021/10/29 13:54:43;;;;;;;4.30;3.90;;;;;;;14.40;62.72;100825.75;5010631;28;20215;-75